Time;durP1;ratioP1;P1;durP2;ratioP2;P2;SDS_P1;SDS_P2;PMS_P1;PMS_P2;Temp;Humidity;BMP_temperature;BMP_pressure;BME280_temperature;BME280_humidity;BME280_pressure;Samples;Min_cycle;Max_cycle;Signal;HPM_P1;HPM_P2
2023/07/27 00:01:45;;;;;;;4.13;2.97;;;;;;;22.25;100.00;97651.56;5073260;28;20086;-80
2023/07/27 00:04:29;;;;;;;3.33;3.03;;;;;;;22.43;100.00;97645.56;5080247;28;20039;-79
2023/07/27 00:07:13;;;;;;;2.85;2.65;;;;;;;22.34;100.00;97646.28;5078609;28;20066;-80
2023/07/27 00:10:00;;;;;;;2.92;2.45;;;;;;;22.36;100.00;97644.09;5076550;28;20105;-80
2023/07/27 00:12:44;;;;;;;2.47;2.28;;;;;;;21.87;100.00;97632.50;5077396;28;20048;-80
2023/07/27 00:15:28;;;;;;;2.40;2.20;;;;;;;22.15;100.00;97632.34;5080421;28;20038;-80
2023/07/27 00:18:12;;;;;;;1.65;1.55;;;;;;;22.08;100.00;97633.56;5080691;28;20105;-80
2023/07/27 00:20:56;;;;;;;1.50;1.40;;;;;;;21.99;100.00;97640.72;5084968;28;20056;-80
2023/07/27 00:23:39;;;;;;;1.58;1.48;;;;;;;21.88;100.00;97628.72;5086197;28;20039;-80
2023/07/27 00:26:24;;;;;;;3.05;1.58;;;;;;;21.78;100.00;97627.09;5077926;28;20106;-81
2023/07/27 00:29:08;;;;;;;1.40;1.30;;;;;;;21.83;100.00;97611.72;5086221;28;20043;-80
2023/07/27 00:31:52;;;;;;;1.58;1.40;;;;;;;22.03;100.00;97615.00;5079525;28;20114;-80
2023/07/27 00:34:36;;;;;;;2.30;1.45;;;;;;;21.87;100.00;97616.47;5084533;28;20116;-80
2023/07/27 00:37:20;;;;;;;1.60;1.50;;;;;;;21.89;100.00;97611.59;5080519;28;20043;-80
2023/07/27 00:40:04;;;;;;;3.13;1.70;;;;;;;21.80;100.00;97601.63;5074465;28;20112;-80
2023/07/27 00:42:49;;;;;;;1.70;1.60;;;;;;;22.00;100.00;97620.94;5079865;28;20051;-80
2023/07/27 00:45:33;;;;;;;1.80;1.70;;;;;;;21.75;100.00;97612.44;5076150;28;20100;-80
2023/07/27 00:48:18;;;;;;;2.33;1.73;;;;;;;21.96;100.00;97603.94;5076849;28;20552;-80
2023/07/27 00:51:02;;;;;;;2.08;1.30;;;;;;;21.97;100.00;97598.31;5081833;28;20505;-81
2023/07/27 00:53:47;;;;;;;1.70;1.60;;;;;;;22.00;100.00;97583.53;5078379;28;20047;-79
2023/07/27 00:56:32;;;;;;;1.80;1.10;;;;;;;21.98;100.00;97596.41;5079638;28;20096;-79
2023/07/27 00:59:16;;;;;;;1.55;1.45;;;;;;;22.00;100.00;97588.09;5083803;28;20046;-80
2023/07/27 01:02:00;;;;;;;1.35;1.17;;;;;;;21.94;100.00;97579.41;5077882;28;20047;-82
2023/07/27 01:04:44;;;;;;;0.95;0.90;;;;;;;22.03;100.00;97574.94;5082157;28;20118;-81
2023/07/27 01:07:28;;;;;;;1.10;1.08;;;;;;;22.03;100.00;97566.09;5084199;28;20178;-80
2023/07/27 01:10:12;;;;;;;2.25;1.00;;;;;;;22.04;100.00;97573.81;5083077;28;20035;-81
2023/07/27 01:13:07;;;;;;;1.10;1.00;;;;;;;22.07;100.00;97567.88;5082746;28;20461;-80
2023/07/27 01:15:58;;;;;;;1.88;1.35;;;;;;;22.07;100.00;97554.50;5082250;28;20508;-80
2023/07/27 01:18:45;;;;;;;2.20;1.70;;;;;;;22.03;100.00;97544.72;5084777;28;20505;-80
2023/07/27 01:21:36;;;;;;;4.68;1.80;;;;;;;22.14;100.00;97538.03;5075415;28;20040;-81
2023/07/27 01:24:29;;;;;;;2.10;1.90;;;;;;;22.10;100.00;97545.88;5078339;28;20079;-80
2023/07/27 01:27:22;;;;;;;2.50;2.10;;;;;;;22.09;100.00;97532.81;5082749;28;20034;-81
2023/07/27 01:30:35;;;;;;;2.92;2.30;;;;;;;22.07;100.00;97530.47;5080346;28;20035;-84
2023/07/27 01:33:26;;;;;;;3.13;2.08;;;;;;;22.20;100.00;97525.31;5080770;28;20063;-81
2023/07/27 01:36:16;;;;;;;1.98;1.80;;;;;;;22.02;100.00;97522.59;5082804;28;20036;-81
2023/07/27 01:39:04;;;;;;;4.07;1.83;;;;;;;22.13;100.00;97524.97;5080779;28;20079;-81
2023/07/27 01:41:51;;;;;;;2.70;1.83;;;;;;;22.29;100.00;97517.31;5079147;28;20094;-81
2023/07/27 01:44:37;;;;;;;2.50;2.30;;;;;;;22.30;100.00;97514.34;5081704;28;20089;-82
2023/07/27 01:47:23;;;;;;;3.70;2.15;;;;;;;22.23;100.00;97508.69;5080160;28;20182;-81
2023/07/27 01:50:09;;;;;;;2.15;1.95;;;;;;;22.23;100.00;97504.09;5078141;28;20092;-81
2023/07/27 01:52:54;;;;;;;2.60;1.90;;;;;;;22.15;100.00;97504.88;5081126;28;20563;-81
2023/07/27 01:55:39;;;;;;;2.97;2.40;;;;;;;22.55;100.00;97509.41;5081089;28;20044;-80
2023/07/27 01:58:26;;;;;;;2.60;2.28;;;;;;;22.47;100.00;97499.50;5082948;28;20047;-80
2023/07/27 02:01:10;;;;;;;2.85;1.98;;;;;;;22.41;100.00;97504.16;5081212;28;20484;-81
2023/07/27 02:03:55;;;;;;;1.65;1.55;;;;;;;22.50;100.00;97498.88;5081011;28;20140;-81
2023/07/27 02:06:39;;;;;;;2.35;2.10;;;;;;;22.43;100.00;97488.59;5082812;28;20191;-81
2023/07/27 02:09:23;;;;;;;2.10;1.90;;;;;;;22.32;100.00;97485.44;5080189;28;20406;-80
2023/07/27 02:12:26;;;;;;;2.67;1.77;;;;;;;22.33;100.00;97484.31;5080316;28;20101;-81
2023/07/27 02:15:25;;;;;;;1.80;1.70;;;;;;;22.19;100.00;97478.31;5076263;28;20035;-81
2023/07/27 02:18:18;;;;;;;1.80;1.70;;;;;;;22.10;100.00;97481.75;5077458;28;20071;-79
2023/07/27 02:21:05;;;;;;;1.83;1.73;;;;;;;22.09;100.00;97479.38;5074788;28;22050;-79
2023/07/27 02:23:50;;;;;;;2.50;1.77;;;;;;;22.46;100.00;97489.88;5076704;28;20505;-78
2023/07/27 02:26:35;;;;;;;3.75;1.80;;;;;;;22.54;100.00;97481.09;5070111;28;20493;-79
2023/07/27 02:29:19;;;;;;;3.60;1.95;;;;;;;22.60;100.00;97482.53;5074810;28;20094;-78
2023/07/27 02:32:03;;;;;;;2.97;2.15;;;;;;;22.44;100.00;97484.81;5078335;28;20052;-79
2023/07/27 02:34:47;;;;;;;1.90;1.80;;;;;;;22.52;100.00;97476.09;5069509;28;20504;-78
2023/07/27 02:37:31;;;;;;;2.65;1.98;;;;;;;22.63;100.00;97476.56;5080643;28;20035;-79
2023/07/27 02:40:15;;;;;;;3.47;2.00;;;;;;;22.50;100.00;97461.44;5078267;28;20718;-78
2023/07/27 02:42:59;;;;;;;3.20;1.67;;;;;;;22.43;100.00;97466.44;5071361;28;20047;-78
2023/07/27 02:45:43;;;;;;;2.10;1.90;;;;;;;22.46;100.00;97465.81;5075291;28;20046;-79
2023/07/27 02:48:27;;;;;;;1.50;1.40;;;;;;;22.50;100.00;97461.44;5076030;28;20043;-79
2023/07/27 02:51:11;;;;;;;2.95;1.80;;;;;;;22.47;100.00;97457.50;5082269;28;20039;-78
2023/07/27 02:53:55;;;;;;;2.63;1.65;;;;;;;22.72;100.00;97446.38;5079253;28;20547;-78
2023/07/27 02:56:39;;;;;;;1.70;1.60;;;;;;;22.67;100.00;97444.63;5079115;28;20504;-78
2023/07/27 02:59:23;;;;;;;3.67;1.80;;;;;;;22.69;100.00;97450.44;5077701;28;20535;-79
2023/07/27 03:02:07;;;;;;;3.10;2.00;;;;;;;22.70;100.00;97453.91;5076313;28;20086;-79
2023/07/27 03:04:51;;;;;;;4.82;1.98;;;;;;;22.68;100.00;97455.03;5076066;28;20039;-78
2023/07/27 03:07:35;;;;;;;3.05;1.80;;;;;;;22.72;100.00;97452.50;5072167;28;20078;-79
2023/07/27 03:10:19;;;;;;;2.75;2.55;;;;;;;22.99;100.00;97453.28;5074912;28;20047;-79
2023/07/27 03:13:03;;;;;;;2.72;2.00;;;;;;;23.19;100.00;97454.56;5073927;28;20073;-78
2023/07/27 03:15:47;;;;;;;2.33;2.10;;;;;;;23.24;100.00;97451.69;5074107;28;20098;-79
2023/07/27 03:18:31;;;;;;;3.08;2.20;;;;;;;23.15;100.00;97448.22;5070105;28;20039;-78
2023/07/27 03:21:15;;;;;;;2.97;1.88;;;;;;;23.12;100.00;97448.88;5074397;28;20043;-78
2023/07/27 03:23:59;;;;;;;2.28;1.73;;;;;;;23.18;100.00;97446.81;5073419;28;20043;-78
2023/07/27 03:26:44;;;;;;;3.45;1.98;;;;;;;23.13;100.00;97452.34;5076077;28;20039;-78
2023/07/27 03:29:28;;;;;;;1.83;1.45;;;;;;;23.27;100.00;97454.88;5073690;28;20043;-78
2023/07/27 03:32:12;;;;;;;1.80;1.70;;;;;;;23.30;100.00;97440.84;5071805;28;20031;-77
2023/07/27 03:34:57;;;;;;;2.83;1.70;;;;;;;23.36;100.00;97448.41;5075083;28;20043;-77
2023/07/27 03:37:41;;;;;;;2.28;2.08;;;;;;;23.37;100.00;97433.09;5074661;28;20544;-78
2023/07/27 03:40:25;;;;;;;2.50;2.20;;;;;;;23.29;100.00;97447.31;5074274;28;20414;-78
2023/07/27 03:43:08;;;;;;;3.17;2.17;;;;;;;23.25;100.00;97447.94;5073892;28;20402;-78
2023/07/27 03:45:53;;;;;;;1.83;1.73;;;;;;;23.07;100.00;97441.00;5071063;28;20036;-77
2023/07/27 03:48:37;;;;;;;2.10;1.90;;;;;;;23.14;100.00;97443.97;5078703;28;20038;-78
2023/07/27 03:51:21;;;;;;;2.40;1.52;;;;;;;23.18;100.00;97442.25;5077739;28;20043;-77
2023/07/27 03:54:05;;;;;;;1.13;1.10;;;;;;;23.09;100.00;97446.84;5082983;28;20050;-78
2023/07/27 03:56:49;;;;;;;1.45;1.35;;;;;;;23.14;100.00;97441.31;5081015;28;20516;-78
2023/07/27 03:59:33;;;;;;;1.70;1.60;;;;;;;23.13;100.00;97442.41;5084072;28;20047;-78
2023/07/27 04:02:17;;;;;;;2.03;1.30;;;;;;;23.10;100.00;97443.06;5081661;28;20398;-77
2023/07/27 04:05:01;;;;;;;1.90;1.60;;;;;;;23.15;100.00;97442.09;5079279;28;20034;-78
2023/07/27 04:07:49;;;;;;;2.50;1.80;;;;;;;23.21;100.00;97444.31;5081597;28;20402;-78
2023/07/27 04:10:33;;;;;;;1.50;1.40;;;;;;;23.21;100.00;97447.00;5079739;28;20047;-78
2023/07/27 04:13:17;;;;;;;1.67;1.27;;;;;;;23.13;100.00;97439.75;5079346;28;20190;-78
2023/07/27 04:16:04;;;;;;;1.95;1.50;;;;;;;23.27;100.00;97449.53;5077432;28;20048;-78
2023/07/27 04:18:48;;;;;;;4.28;1.48;;;;;;;23.44;100.00;97451.38;5077018;28;20112;-78
2023/07/27 04:21:32;;;;;;;1.92;1.50;;;;;;;23.64;100.00;97447.22;5076470;28;20093;-78
2023/07/27 04:24:16;;;;;;;1.80;1.70;;;;;;;23.61;100.00;97450.56;5076817;28;20543;-78
2023/07/27 04:27:00;;;;;;;2.22;1.60;;;;;;;23.29;100.00;97442.75;5081814;28;20112;-79
2023/07/27 04:29:44;;;;;;;1.45;1.35;;;;;;;23.42;100.00;97446.34;5078334;28;20551;-78
2023/07/27 04:32:28;;;;;;;1.92;1.50;;;;;;;23.38;100.00;97435.47;5076747;28;20089;-78
2023/07/27 04:35:12;;;;;;;1.60;1.50;;;;;;;23.48;100.00;97434.34;5079360;28;20035;-78
2023/07/27 04:37:56;;;;;;;2.67;1.40;;;;;;;23.66;100.00;97436.97;5076702;28;20046;-78
2023/07/27 04:40:41;;;;;;;1.58;1.48;;;;;;;23.62;100.00;97438.72;5078603;28;20083;-78
2023/07/27 04:43:25;;;;;;;1.60;1.48;;;;;;;23.48;100.00;97431.69;5081273;28;20108;-78
2023/07/27 04:46:09;;;;;;;3.17;1.50;;;;;;;23.49;100.00;97435.91;5076910;28;20094;-78
2023/07/27 04:48:53;;;;;;;1.42;1.33;;;;;;;23.50;100.00;97431.38;5080691;28;20063;-77
2023/07/27 04:51:37;;;;;;;2.45;1.48;;;;;;;23.44;100.00;97428.06;5074567;28;20035;-78
2023/07/27 04:54:21;;;;;;;2.10;1.90;;;;;;;23.40;100.00;97429.81;5078926;28;20093;-79
2023/07/27 04:57:05;;;;;;;1.67;1.50;;;;;;;23.42;100.00;97437.50;5080824;28;20043;-77
2023/07/27 04:59:49;;;;;;;1.88;1.40;;;;;;;23.32;100.00;97430.59;5081401;28;20090;-77
2023/07/27 05:02:33;;;;;;;1.60;1.50;;;;;;;23.30;100.00;97435.50;5078967;28;20113;-77
2023/07/27 05:05:17;;;;;;;2.40;1.45;;;;;;;23.24;100.00;97435.63;5075178;28;20039;-77
2023/07/27 05:08:01;;;;;;;1.45;1.35;;;;;;;23.21;100.00;97435.47;5077904;28;20082;-78
2023/07/27 05:10:45;;;;;;;1.52;1.20;;;;;;;23.16;100.00;97439.09;5077052;28;20535;-78
2023/07/27 05:13:29;;;;;;;1.40;1.30;;;;;;;22.93;100.00;97441.97;5079440;28;20101;-78
2023/07/27 05:16:13;;;;;;;1.10;1.00;;;;;;;22.84;100.00;97438.50;5075901;28;20039;-77
2023/07/27 05:18:57;;;;;;;1.33;1.23;;;;;;;22.69;100.00;97439.75;5079521;28;20398;-78
2023/07/27 05:21:41;;;;;;;1.40;1.30;;;;;;;22.87;100.00;97459.28;5076864;28;20047;-78
2023/07/27 05:24:25;;;;;;;2.35;1.42;;;;;;;22.79;100.00;97452.03;5075146;28;20044;-78
2023/07/27 05:27:09;;;;;;;1.63;1.30;;;;;;;22.89;100.00;97451.72;5077473;28;20066;-78
2023/07/27 05:29:53;;;;;;;1.83;1.20;;;;;;;22.91;100.00;97441.50;5076158;28;20448;-78
2023/07/27 05:32:37;;;;;;;2.42;1.20;;;;;;;23.07;100.00;97444.47;5078077;28;20066;-77
2023/07/27 05:35:21;;;;;;;1.30;1.20;;;;;;;23.22;100.00;97450.44;5077999;28;20127;-78
2023/07/27 05:38:05;;;;;;;1.15;0.80;;;;;;;23.49;100.00;97446.63;5079789;28;20094;-80
2023/07/27 05:40:49;;;;;;;1.50;1.27;;;;;;;23.58;100.00;97437.78;5073414;28;20119;-78
2023/07/27 05:43:33;;;;;;;1.10;0.90;;;;;;;23.66;100.00;97447.69;5076685;28;20059;-78
2023/07/27 05:46:17;;;;;;;1.02;1.02;;;;;;;23.69;100.00;97444.38;5078515;28;20413;-78
2023/07/27 05:49:01;;;;;;;1.40;1.10;;;;;;;23.77;100.00;97442.78;5077218;28;20055;-78
2023/07/27 05:51:45;;;;;;;1.33;1.23;;;;;;;23.74;100.00;97441.50;5079876;28;20489;-78
2023/07/27 05:54:29;;;;;;;1.38;1.20;;;;;;;23.76;100.00;97444.66;5076201;28;20067;-77
2023/07/27 05:57:13;;;;;;;2.13;1.20;;;;;;;23.92;100.00;97436.09;5077685;28;20046;-78
2023/07/27 05:59:57;;;;;;;1.33;0.95;;;;;;;23.84;100.00;97435.00;5077818;28;20188;-78
2023/07/27 06:02:41;;;;;;;1.30;1.20;;;;;;;23.80;100.00;97445.59;5069791;28;20075;-77
2023/07/27 06:05:25;;;;;;;1.00;0.85;;;;;;;23.78;100.00;97437.09;5080319;28;20078;-78
2023/07/27 06:08:09;;;;;;;4.80;0.80;;;;;;;23.66;100.00;97445.00;5077359;28;20114;-78
2023/07/27 06:11:00;;;;;;;0.65;0.60;;;;;;;23.56;100.00;97437.31;5078644;28;20106;-78
2023/07/27 06:13:44;;;;;;;2.10;0.82;;;;;;;23.57;100.00;97446.91;5079333;28;20046;-78
2023/07/27 06:16:28;;;;;;;0.60;0.60;;;;;;;23.34;100.00;97452.50;5079417;28;20175;-80
2023/07/27 06:19:12;;;;;;;0.63;0.63;;;;;;;23.56;100.00;97451.50;5074200;28;20460;-77
2023/07/27 06:21:56;;;;;;;0.73;0.50;;;;;;;23.36;100.00;97447.59;5074702;28;21186;-78
2023/07/27 06:24:40;;;;;;;0.50;0.50;;;;;;;23.38;100.00;97443.50;5077844;28;21700;-78
2023/07/27 06:27:24;;;;;;;0.60;0.60;;;;;;;23.44;100.00;97449.50;5075947;28;20035;-78
2023/07/27 06:30:08;;;;;;;0.60;0.60;;;;;;;23.04;100.00;97447.78;5065073;28;20060;-79
2023/07/27 06:32:53;;;;;;;1.23;0.70;;;;;;;23.10;100.00;97454.56;5074472;28;21776;-78
2023/07/27 06:35:37;;;;;;;3.25;0.88;;;;;;;23.44;100.00;97457.53;5075043;28;20055;-78
2023/07/27 06:38:21;;;;;;;0.55;0.52;;;;;;;23.61;100.00;97458.59;5075141;28;21196;-78
2023/07/27 06:41:05;;;;;;;0.80;0.70;;;;;;;24.08;100.00;97455.13;5074553;28;20200;-78
2023/07/27 06:43:49;;;;;;;1.42;0.80;;;;;;;24.24;100.00;97458.03;5079827;28;20193;-78
2023/07/27 06:46:33;;;;;;;0.90;0.70;;;;;;;24.33;100.00;97456.06;5080880;28;20567;-78
2023/07/27 06:49:18;;;;;;;1.15;0.77;;;;;;;24.64;100.00;97462.19;5077890;28;20042;-79
2023/07/27 06:52:02;;;;;;;3.70;0.82;;;;;;;24.64;100.00;97454.94;5080860;28;20042;-79
2023/07/27 06:54:46;;;;;;;4.07;2.20;;;;;;;24.53;100.00;97464.47;5082112;28;20050;-79
2023/07/27 06:57:30;;;;;;;2.83;2.47;;;;;;;24.54;100.00;97463.38;5073532;28;20078;-79
2023/07/27 07:00:14;;;;;;;3.55;2.97;;;;;;;24.65;100.00;97461.88;5073644;28;20086;-79
2023/07/27 07:02:58;;;;;;;1.63;1.52;;;;;;;24.76;100.00;97469.56;5070419;28;20125;-80
2023/07/27 07:05:42;;;;;;;0.70;0.70;;;;;;;24.96;100.00;97465.31;5071545;28;20051;-80
2023/07/27 07:08:27;;;;;;;2.15;0.88;;;;;;;24.80;100.00;97463.22;5075945;28;20052;-80
2023/07/27 07:11:11;;;;;;;2.65;1.73;;;;;;;24.75;100.00;97470.63;5070482;28;20741;-79
2023/07/27 07:13:55;;;;;;;3.25;2.95;;;;;;;25.08;100.00;97467.25;5072302;28;21705;-79
2023/07/27 07:16:39;;;;;;;5.00;4.50;;;;;;;25.30;100.00;97459.94;5078227;28;20441;-79
2023/07/27 07:19:23;;;;;;;6.18;5.57;;;;;;;25.52;100.00;97467.66;5074017;28;22852;-79
2023/07/27 07:22:07;;;;;;;6.53;5.80;;;;;;;25.22;100.00;97470.44;5073576;28;20039;-78
2023/07/27 07:24:52;;;;;;;6.60;6.00;;;;;;;24.71;100.00;97469.72;5071697;28;20036;-80
2023/07/27 07:27:36;;;;;;;5.68;5.28;;;;;;;24.71;100.00;97478.56;5078413;28;20051;-79
2023/07/27 07:30:20;;;;;;;5.28;4.88;;;;;;;25.02;100.00;97495.41;5081876;28;20071;-82
2023/07/27 07:33:04;;;;;;;4.45;3.85;;;;;;;25.45;100.00;97494.25;5081031;28;20058;-81
2023/07/27 07:35:49;;;;;;;2.97;2.78;;;;;;;25.60;100.00;97489.41;5081100;28;20115;-80
2023/07/27 07:38:33;;;;;;;2.20;2.00;;;;;;;25.06;100.00;97496.34;5079716;28;21580;-81
2023/07/27 07:41:16;;;;;;;3.50;3.22;;;;;;;25.26;100.00;97493.94;5077121;28;20040;-81
2023/07/27 07:44:00;;;;;;;5.72;5.22;;;;;;;25.57;100.00;97501.56;5078227;28;20098;-80
2023/07/27 07:46:44;;;;;;;6.43;5.93;;;;;;;26.14;100.00;97493.03;5075079;28;20089;-81
2023/07/27 07:49:28;;;;;;;7.45;6.85;;;;;;;26.31;100.00;97502.81;5085551;28;20035;-80
2023/07/27 07:52:13;;;;;;;7.32;6.72;;;;;;;26.64;100.00;97505.38;5081261;28;20122;-81
2023/07/27 07:54:57;;;;;;;7.00;6.50;;;;;;;27.16;100.00;97496.84;5072598;28;20043;-80
2023/07/27 07:57:41;;;;;;;5.18;4.78;;;;;;;26.46;100.00;97504.03;5073069;28;20048;-81
2023/07/27 08:00:25;;;;;;;5.72;5.30;;;;;;;26.87;99.55;97504.13;5074299;28;20047;-80
2023/07/27 08:03:09;;;;;;;3.65;3.38;;;;;;;26.65;99.17;97511.53;5081374;28;20398;-81
2023/07/27 08:05:53;;;;;;;3.35;3.15;;;;;;;26.53;98.94;97512.34;5082108;28;20047;-79
2023/07/27 08:08:37;;;;;;;2.53;2.33;;;;;;;27.08;97.25;97517.41;5074093;28;20463;-82
2023/07/27 08:11:21;;;;;;;2.30;2.20;;;;;;;27.42;94.18;97520.63;5077800;28;20122;-81
2023/07/27 08:14:05;;;;;;;2.45;1.67;;;;;;;27.76;93.58;97518.47;5078169;28;20043;-80
2023/07/27 08:16:50;;;;;;;1.30;1.20;;;;;;;27.59;93.28;97516.88;5070159;28;20039;-79
2023/07/27 08:19:34;;;;;;;1.10;1.10;;;;;;;28.10;92.26;97515.44;5075131;28;20165;-80
2023/07/27 08:22:18;;;;;;;1.10;1.10;;;;;;;28.15;90.59;97522.47;5073023;28;20386;-80
2023/07/27 08:25:04;;;;;;;1.15;1.00;;;;;;;27.84;90.22;97519.44;5075912;28;20145;-80
2023/07/27 08:27:50;;;;;;;1.10;1.10;;;;;;;27.27;90.47;97529.44;5075990;28;20516;-80
2023/07/27 08:30:34;;;;;;;1.20;1.20;;;;;;;27.68;90.01;97527.50;5075347;28;20166;-80
2023/07/27 08:33:19;;;;;;;1.30;1.20;;;;;;;28.38;88.85;97522.66;5070455;28;20169;-80
2023/07/27 08:36:03;;;;;;;1.20;1.10;;;;;;;28.05;90.67;97529.19;5068948;28;20503;-80
2023/07/27 08:38:48;;;;;;;1.10;1.10;;;;;;;27.86;89.35;97527.97;5078119;28;20202;-79
2023/07/27 08:41:32;;;;;;;1.60;1.50;;;;;;;28.48;88.47;97514.03;5081692;28;20074;-79
2023/07/27 08:44:16;;;;;;;1.92;1.17;;;;;;;28.07;88.71;97535.78;5076537;28;20112;-80
2023/07/27 08:47:02;;;;;;;2.38;1.40;;;;;;;27.79;88.67;97528.56;5071401;28;20082;-84
2023/07/27 08:49:47;;;;;;;3.08;1.70;;;;;;;27.67;89.38;97525.16;5078990;28;20050;-83
2023/07/27 08:52:31;;;;;;;2.95;2.17;;;;;;;28.22;88.64;97530.78;5074564;28;20044;-83
2023/07/27 08:55:15;;;;;;;3.40;3.20;;;;;;;28.35;88.15;97528.75;5080405;28;20063;-78
2023/07/27 08:57:59;;;;;;;3.67;3.38;;;;;;;28.05;87.60;97524.56;5074056;28;20043;-81
2023/07/27 09:00:44;;;;;;;4.50;4.18;;;;;;;28.00;87.80;97527.53;5076726;28;20039;-82
2023/07/27 09:03:28;;;;;;;4.15;3.80;;;;;;;28.25;88.70;97526.59;5083497;28;20544;-81
2023/07/27 09:06:12;;;;;;;4.60;4.22;;;;;;;28.86;88.60;97538.78;5078462;28;20736;-80
2023/07/27 09:08:56;;;;;;;3.95;3.65;;;;;;;28.41;86.77;97532.75;5073753;28;20525;-77
2023/07/27 09:11:41;;;;;;;4.80;4.47;;;;;;;28.35;85.78;97540.34;5076163;28;20521;-76
2023/07/27 09:14:26;;;;;;;4.55;4.15;;;;;;;27.86;85.96;97540.66;5075328;28;20071;-75
2023/07/27 09:17:12;;;;;;;5.20;4.70;;;;;;;28.25;86.26;97543.56;5080146;28;20552;-76
2023/07/27 09:19:57;;;;;;;5.60;5.03;;;;;;;27.80;87.33;97549.00;5079581;28;20093;-76
2023/07/27 09:22:42;;;;;;;4.97;4.57;;;;;;;27.75;88.12;97551.16;5075976;28;20167;-76
2023/07/27 09:25:26;;;;;;;3.95;3.65;;;;;;;27.23;88.17;97549.00;5071640;28;20040;-80
2023/07/27 09:28:10;;;;;;;4.18;3.88;;;;;;;27.65;87.95;97555.94;5076041;28;20875;-80
2023/07/27 09:30:59;;;;;;;4.72;4.25;;;;;;;27.97;86.91;97552.50;5081977;28;20038;-80
2023/07/27 09:33:43;;;;;;;3.70;3.38;;;;;;;28.18;86.69;97543.41;5071049;28;20102;-81
2023/07/27 09:36:27;;;;;;;5.10;4.70;;;;;;;27.68;86.79;97553.66;5075615;28;20097;-80
2023/07/27 09:39:13;;;;;;;4.40;4.10;;;;;;;28.12;86.44;97555.56;5078158;28;20047;-80
2023/07/27 09:41:57;;;;;;;4.78;4.43;;;;;;;28.07;87.28;97554.66;5078832;28;20409;-80
2023/07/27 09:44:49;;;;;;;3.35;3.15;;;;;;;27.88;87.40;97557.25;5076183;28;20501;-80
2023/07/27 09:47:34;;;;;;;3.65;3.38;;;;;;;28.17;86.20;97558.00;5075476;28;20052;-80
2023/07/27 09:50:19;;;;;;;2.72;2.53;;;;;;;27.99;86.55;97565.63;5070584;28;20398;-80
2023/07/27 09:53:05;;;;;;;2.25;2.15;;;;;;;28.11;85.88;97560.16;5075243;28;20039;-79
2023/07/27 09:55:53;;;;;;;2.55;2.35;;;;;;;27.92;85.97;97563.53;5077687;28;20071;-79
2023/07/27 09:58:39;;;;;;;3.80;2.90;;;;;;;27.95;85.84;97562.84;5069026;28;21768;-75
2023/07/27 10:01:25;;;;;;;3.28;3.08;;;;;;;28.25;85.83;97562.44;5078036;28;20064;-76
2023/07/27 10:04:09;;;;;;;3.92;3.63;;;;;;;28.33;85.16;97571.50;5073669;28;20063;-76
2023/07/27 10:06:53;;;;;;;4.47;4.07;;;;;;;29.07;84.32;97567.34;5075838;28;20055;-75
2023/07/27 10:09:38;;;;;;;4.40;4.10;;;;;;;29.08;83.95;97566.22;5080996;28;20127;-75
2023/07/27 10:12:29;;;;;;;3.20;3.00;;;;;;;29.14;81.36;97564.03;5083429;28;20405;-75
2023/07/27 10:15:27;;;;;;;4.32;2.80;;;;;;;29.00;81.11;97565.31;5078689;28;20046;-74
2023/07/27 10:18:13;;;;;;;3.45;3.20;;;;;;;28.58;81.08;97563.97;5076596;28;20047;-74
2023/07/27 10:21:23;;;;;;;3.72;3.42;;;;;;;27.99;82.55;97550.22;5078343;28;20051;-74
2023/07/27 10:24:07;;;;;;;2.97;2.63;;;;;;;27.08;84.88;97576.63;5081920;28;20050;-79
2023/07/27 10:26:52;;;;;;;3.30;3.00;;;;;;;26.66;86.40;97572.31;5077964;28;20039;-74
2023/07/27 10:29:41;;;;;;;5.53;3.47;;;;;;;28.25;100.00;97618.31;5068221;28;20051;-77
2023/07/27 10:32:29;;;;;;;3.25;2.72;;;;;;;28.87;100.00;97580.06;5070841;28;20039;-74
2023/07/27 10:35:13;;;;;;;2.50;2.30;;;;;;;28.78;100.00;97582.94;5073695;28;20492;-77
2023/07/27 10:38:00;;;;;;;1.50;1.40;;;;;;;28.02;100.00;97589.22;5078531;28;20124;-85
2023/07/27 10:40:44;;;;;;;1.67;1.58;;;;;;;28.66;100.00;97594.63;5075698;28;20040;-80
2023/07/27 10:43:28;;;;;;;0.90;0.90;;;;;;;28.11;100.00;97592.53;5077153;28;20528;-81
2023/07/27 10:46:23;;;;;;;0.80;0.80;;;;;;;28.13;100.00;97595.66;5080780;28;20066;-83
2023/07/27 10:49:18;;;;;;;1.70;1.10;;;;;;;27.84;100.00;97596.81;5079613;28;20048;-80
2023/07/27 10:52:02;;;;;;;1.23;1.13;;;;;;;28.02;100.00;97595.38;5076568;28;20074;-79
2023/07/27 10:54:47;;;;;;;1.30;1.20;;;;;;;28.03;100.00;97588.84;5077206;28;20065;-82
2023/07/27 10:57:33;;;;;;;1.55;1.10;;;;;;;28.99;97.62;97595.38;5079095;28;20047;-80
2023/07/27 11:00:17;;;;;;;1.30;1.20;;;;;;;29.46;92.26;97599.06;5079139;28;20546;-80
2023/07/27 11:03:02;;;;;;;2.95;1.70;;;;;;;29.34;91.18;97602.66;5076165;28;20558;-80
2023/07/27 11:06:02;;;;;;;4.03;1.50;;;;;;;29.57;89.70;97610.09;5079688;28;20036;-80
2023/07/27 11:08:46;;;;;;;2.17;1.30;;;;;;;29.12;89.82;97602.22;5077900;28;20059;-79
2023/07/27 11:11:30;;;;;;;1.85;1.33;;;;;;;29.11;91.40;97608.75;5076568;28;20055;-80
2023/07/27 11:14:13;;;;;;;1.50;1.40;;;;;;;28.88;90.57;97605.94;5080921;28;20113;-80
2023/07/27 11:16:58;;;;;;;1.67;1.58;;;;;;;28.96;88.51;97602.25;5076368;28;20036;-82
2023/07/27 11:19:42;;;;;;;2.90;1.63;;;;;;;29.01;85.83;97612.78;5080951;28;20093;-80
2023/07/27 11:22:26;;;;;;;1.67;1.58;;;;;;;28.35;89.06;97607.78;5075689;28;20142;-82
2023/07/27 11:25:10;;;;;;;1.63;1.45;;;;;;;29.37;94.28;97618.16;5079080;28;20051;-82
2023/07/27 11:27:55;;;;;;;2.28;1.60;;;;;;;29.79;88.11;97609.34;5074457;28;20044;-82
2023/07/27 11:30:39;;;;;;;1.48;1.38;;;;;;;29.90;87.11;97614.19;5075418;28;20046;-82
2023/07/27 11:33:29;;;;;;;1.40;1.30;;;;;;;30.02;86.60;97605.16;5083095;28;20543;-81
2023/07/27 11:36:13;;;;;;;1.55;1.40;;;;;;;29.52;85.30;97623.91;5076296;28;20043;-82
2023/07/27 11:38:58;;;;;;;1.20;1.20;;;;;;;30.51;83.10;97619.88;5074749;28;20043;-81
2023/07/27 11:41:42;;;;;;;1.27;1.17;;;;;;;30.55;82.28;97604.47;5078780;28;20117;-82
2023/07/27 11:44:26;;;;;;;2.92;1.40;;;;;;;31.62;79.89;97619.84;5074863;28;20040;-82
2023/07/27 11:47:10;;;;;;;1.20;1.20;;;;;;;31.95;76.98;97612.06;5072435;28;20083;-83
2023/07/27 11:49:57;;;;;;;1.90;1.80;;;;;;;31.63;72.76;97618.69;5076726;28;20063;-81
2023/07/27 11:52:41;;;;;;;1.77;1.67;;;;;;;31.91;72.96;97617.47;5073426;28;20440;-82
2023/07/27 11:55:31;;;;;;;3.70;2.13;;;;;;;32.10;71.65;97612.22;5081216;28;20071;-80
2023/07/27 11:58:15;;;;;;;2.38;2.00;;;;;;;32.19;70.44;97623.53;5080824;28;20069;-80
2023/07/27 12:01:00;;;;;;;3.70;2.10;;;;;;;31.77;70.45;97615.38;5078218;28;20048;-80
2023/07/27 12:03:44;;;;;;;2.22;2.03;;;;;;;32.24;70.07;97615.06;5077722;28;20074;-80
2023/07/27 12:06:29;;;;;;;2.50;2.28;;;;;;;31.90;68.92;97623.28;5079351;28;20098;-80
2023/07/27 12:09:13;;;;;;;2.30;2.10;;;;;;;31.27;69.45;97623.69;5078658;28;20047;-80
2023/07/27 12:11:57;;;;;;;2.35;2.15;;;;;;;31.79;70.25;97627.81;5074011;28;20048;-81
2023/07/27 12:14:44;;;;;;;1.95;1.85;;;;;;;32.00;68.47;97628.00;5083453;28;20566;-81
2023/07/27 12:17:27;;;;;;;2.80;2.20;;;;;;;32.03;69.06;97631.94;5082831;28;20044;-81
2023/07/27 12:20:12;;;;;;;2.90;2.30;;;;;;;31.27;69.81;97637.25;5079756;28;20070;-82
2023/07/27 12:22:59;;;;;;;1.70;1.60;;;;;;;30.84;70.36;97637.41;5078245;28;20086;-81
2023/07/27 12:25:43;;;;;;;1.90;1.80;;;;;;;30.50;70.92;97639.97;5082462;28;20584;-81
2023/07/27 12:28:27;;;;;;;2.08;1.98;;;;;;;31.58;69.45;97634.53;5078591;28;20059;-81
2023/07/27 12:31:11;;;;;;;5.45;3.47;;;;;;;31.14;69.29;97639.38;5085148;28;20101;-81
2023/07/27 12:33:55;;;;;;;3.47;2.58;;;;;;;30.06;71.18;97635.75;5080262;28;20536;-81
2023/07/27 12:36:39;;;;;;;1.90;1.80;;;;;;;30.42;71.39;97641.78;5083460;28;20038;-81
2023/07/27 12:39:23;;;;;;;2.00;1.90;;;;;;;31.19;69.80;97636.34;5082463;28;20040;-80
2023/07/27 12:42:07;;;;;;;2.05;1.75;;;;;;;31.41;68.71;97633.94;5081736;28;20051;-81
2023/07/27 12:44:51;;;;;;;2.50;2.10;;;;;;;31.30;68.86;97636.50;5082666;28;20044;-80
2023/07/27 12:47:36;;;;;;;2.00;1.80;;;;;;;31.33;68.67;97635.78;5080539;28;20610;-81
2023/07/27 12:50:20;;;;;;;3.05;2.30;;;;;;;31.04;68.66;97624.53;5079318;28;20058;-80
2023/07/27 12:53:04;;;;;;;3.33;2.40;;;;;;;30.13;71.17;97626.97;5078944;28;20087;-81